In Rescue
 
Open Full Screen Window  High Contrast Mode
Wind Gusting 23 knots
16
April 19, 2021 7:10 PM CDT
Weather Information
Wind Direction
  360 °
Wind Speed
  16 kt (18 mph)
Wind Gust
  23 kt (26 mph)
Altimeter
30.10 in
Visibility
10 SM
Temperature
03° C
37° F
Dewpoint
-11° C
12° F
Humidity
35%
1hr Rain Fall
00.00 in.
24hr Rain Fall
00.00 in.
Sky Condition
Broken @ 6,000 ft
VFR

METAR KBBB 200010Z AUTO 36016G23KT 10SM BKN060 03/M11 A3010 RMK AO2

FAA Disclaimer: The data displayed is for advisory purposes only and is not to be used for flight planning or operations.